Neosho Rapids, Kansas
Current Conditions -  °F | °C
As of 10:53 PM on Friday 24 Oct 2014 (Local Time) from KEMP Reporting Station
Clear Clear  
Wind Chill: 62°   Ceiling: Unl
Heat Index: 62°   Visibility: 10mi
Dew Point: 60°   Wind: 7mph
Humidity: 93%   Direction: 190°S
Pressure: 30"   Gusts: NA
Location:  38.37°N, 95.99°W
Report Text: KEMP 250353Z AUTO 19006KT 10SM CLR 17/16 A3000 RMK AO2 SLP155 T01670156
Loading
Personal Weather Stations






























Interactive Weather Map
Tropical Storm Tracking
New forecast layout! Learn more

10-Day Weather Forecast

Advertisements
Track Severe Weather on mobile